Time;durP1;ratioP1;P1;durP2;ratioP2;P2;SDS_P1;SDS_P2;PMS_P1;PMS_P2;Temp;Humidity;BMP_temperature;BMP_pressure;BME280_temperature;BME280_humidity;BME280_pressure;Samples;Min_cycle;Max_cycle;Signal;HPM_P1;HPM_P2
2020/12/30 00:02:20;;;;;;;2.60;2.40;;;5.10;99.90;;;;;;10523361;28;20226;-78
2020/12/30 00:07:23;;;;;;;2.40;2.20;;;5.20;99.90;;;;;;10513684;28;20660;-78
2020/12/30 00:12:27;;;;;;;2.33;2.13;;;5.30;99.90;;;;;;10514959;28;20572;-78
2020/12/30 00:17:29;;;;;;;1.93;1.83;;;5.30;99.90;;;;;;10501837;28;20303;-78
2020/12/30 00:22:32;;;;;;;2.23;2.13;;;5.40;99.90;;;;;;10534612;28;20204;-78
2020/12/30 00:27:33;;;;;;;1.83;1.73;;;5.50;99.90;;;;;;10534096;28;20192;-78
2020/12/30 00:32:35;;;;;;;2.20;2.00;;;5.50;99.90;;;;;;10531300;28;20231;-78
2020/12/30 00:37:38;;;;;;;2.40;2.23;;;5.60;99.90;;;;;;10542979;28;20204;-78
2020/12/30 00:42:40;;;;;;;2.67;2.23;;;5.60;99.90;;;;;;10523944;28;20216;-79
2020/12/30 00:47:42;;;;;;;3.03;2.77;;;5.60;99.90;;;;;;10530735;28;20192;-78
2020/12/30 00:52:44;;;;;;;2.40;2.00;;;5.60;99.90;;;;;;10514972;28;20220;-78
2020/12/30 00:57:47;;;;;;;2.47;2.33;;;5.60;99.90;;;;;;10513770;28;20215;-81
2020/12/30 01:02:49;;;;;;;2.83;2.63;;;5.60;99.90;;;;;;10494629;28;20240;-79
2020/12/30 01:07:52;;;;;;;3.00;2.80;;;5.60;99.90;;;;;;10493752;28;20622;-78
2020/12/30 01:12:54;;;;;;;2.90;2.70;;;5.60;99.90;;;;;;10491358;28;20230;-78
2020/12/30 01:17:55;;;;;;;2.90;2.70;;;5.50;99.90;;;;;;10511183;28;20248;-78
2020/12/30 01:22:58;;;;;;;2.63;2.43;;;5.40;99.90;;;;;;10511932;28;20220;-78
2020/12/30 01:27:59;;;;;;;2.30;2.20;;;5.40;99.90;;;;;;10514657;28;20601;-78
2020/12/30 01:33:01;;;;;;;2.50;2.40;;;5.40;99.90;;;;;;10495704;28;21013;-78
2020/12/30 01:38:04;;;;;;;2.63;2.43;;;5.40;99.90;;;;;;10503766;28;20581;-78
2020/12/30 01:43:05;;;;;;;2.10;2.00;;;5.40;99.90;;;;;;10493887;28;20228;-78
2020/12/30 01:48:14;;;;;;;2.40;2.30;;;5.40;99.90;;;;;;10518368;28;20655;-78
2020/12/30 01:53:17;;;;;;;2.60;2.40;;;5.50;99.90;;;;;;10502458;28;20228;-78
2020/12/30 01:58:18;;;;;;;2.87;2.67;;;5.60;99.90;;;;;;10496488;28;20235;-78
2020/12/30 02:03:22;;;;;;;3.50;2.90;;;5.60;99.90;;;;;;10503386;28;20306;-78
2020/12/30 02:08:24;;;;;;;2.37;2.27;;;5.60;99.90;;;;;;10514529;28;20197;-78
2020/12/30 02:13:26;;;;;;;2.37;2.27;;;5.50;99.90;;;;;;10506998;28;20691;-78
2020/12/30 02:18:27;;;;;;;2.40;2.20;;;5.50;99.90;;;;;;10508541;28;20219;-78
2020/12/30 02:23:31;;;;;;;2.43;2.27;;;5.50;99.90;;;;;;10498767;28;20802;-78
2020/12/30 02:28:34;;;;;;;3.30;3.03;;;5.50;99.90;;;;;;10510451;28;20207;-78
2020/12/30 02:33:35;;;;;;;2.37;2.20;;;5.50;99.90;;;;;;10522714;28;20231;-77
2020/12/30 02:38:37;;;;;;;2.30;2.20;;;5.60;99.90;;;;;;10545828;28;20675;-78
2020/12/30 02:43:39;;;;;;;2.10;2.00;;;5.60;99.90;;;;;;10545695;28;20705;-78
2020/12/30 02:48:41;;;;;;;2.00;1.90;;;5.60;99.90;;;;;;10545362;28;20213;-78
2020/12/30 02:53:42;;;;;;;1.90;1.80;;;5.60;99.90;;;;;;10545409;28;20211;-78
2020/12/30 02:58:45;;;;;;;1.67;1.57;;;5.60;99.90;;;;;;10540812;28;20200;-78
2020/12/30 03:03:47;;;;;;;2.80;1.83;;;5.60;99.90;;;;;;10485874;28;20235;-78
2020/12/30 03:08:48;;;;;;;1.90;1.80;;;5.60;99.90;;;;;;10512616;28;20180;-78
2020/12/30 03:13:51;;;;;;;2.30;2.10;;;5.60;99.90;;;;;;10502795;28;20295;-78
2020/12/30 03:18:52;;;;;;;1.67;1.57;;;5.60;99.90;;;;;;10502176;28;20289;-78
2020/12/30 03:23:54;;;;;;;2.10;1.80;;;5.70;99.90;;;;;;10502106;28;20223;-78
2020/12/30 03:28:56;;;;;;;2.03;1.70;;;5.70;99.90;;;;;;10504488;28;20196;-78
2020/12/30 03:34:00;;;;;;;1.83;1.60;;;5.80;99.90;;;;;;10502410;28;20601;-78
2020/12/30 03:39:02;;;;;;;1.57;1.40;;;5.80;99.90;;;;;;10500674;28;20216;-78
2020/12/30 03:44:04;;;;;;;1.97;1.80;;;5.80;99.90;;;;;;10500137;28;20637;-78
2020/12/30 03:49:06;;;;;;;2.00;1.80;;;5.80;99.90;;;;;;10501148;28;20238;-78
2020/12/30 03:54:08;;;;;;;2.50;1.70;;;5.80;99.90;;;;;;10500059;28;20236;-78
2020/12/30 03:59:10;;;;;;;3.63;1.87;;;5.90;99.90;;;;;;10501300;28;20304;-78
2020/12/30 04:04:12;;;;;;;1.83;1.73;;;5.90;99.90;;;;;;10536232;28;20280;-78
2020/12/30 04:09:14;;;;;;;1.80;1.70;;;5.90;99.90;;;;;;10541586;28;20203;-78
2020/12/30 04:14:18;;;;;;;2.83;2.23;;;5.90;99.90;;;;;;10543190;28;20268;-78
2020/12/30 04:19:22;;;;;;;1.90;1.80;;;5.80;99.90;;;;;;10524502;28;20215;-78
2020/12/30 04:24:24;;;;;;;2.17;2.00;;;5.80;99.90;;;;;;10523543;28;20235;-78
2020/12/30 04:29:26;;;;;;;2.20;2.10;;;5.80;99.90;;;;;;10542381;28;20184;-78
2020/12/30 04:34:28;;;;;;;4.33;2.50;;;5.80;99.90;;;;;;10534837;22;20592;-84
2020/12/30 04:39:30;;;;;;;2.30;2.10;;;5.80;99.90;;;;;;10519927;28;20287;-83
2020/12/30 04:44:35;;;;;;;2.67;2.47;;;5.70;99.90;;;;;;10502726;28;20222;-83
2020/12/30 04:49:36;;;;;;;1.93;1.83;;;5.70;99.90;;;;;;10485787;28;20238;-83
2020/12/30 04:54:40;;;;;;;2.80;1.80;;;5.60;99.90;;;;;;10501233;28;20212;-84
2020/12/30 04:59:43;;;;;;;1.67;1.50;;;5.50;99.90;;;;;;10497391;28;20220;-84
2020/12/30 05:04:45;;;;;;;1.90;1.80;;;5.50;99.90;;;;;;10495814;28;20223;-83
2020/12/30 05:09:46;;;;;;;2.70;2.00;;;5.50;99.90;;;;;;10518681;28;20604;-83
2020/12/30 05:14:49;;;;;;;2.40;1.97;;;5.60;99.90;;;;;;10508583;28;20320;-84
2020/12/30 05:19:53;;;;;;;2.50;1.70;;;5.60;99.90;;;;;;10498928;28;20226;-83
2020/12/30 05:24:54;;;;;;;4.20;1.67;;;5.60;99.90;;;;;;10517261;28;20248;-83
2020/12/30 05:29:58;;;;;;;2.40;2.20;;;5.60;99.90;;;;;;10490331;28;20212;-84
2020/12/30 05:34:59;;;;;;;2.60;1.90;;;5.60;99.90;;;;;;10485068;28;20298;-84
2020/12/30 05:40:02;;;;;;;2.23;1.97;;;5.60;99.90;;;;;;10488250;28;20303;-83
2020/12/30 05:45:05;;;;;;;1.53;1.43;;;5.50;99.90;;;;;;10484882;28;20227;-83
2020/12/30 05:50:06;;;;;;;1.77;1.67;;;5.50;99.90;;;;;;10501312;28;20193;-83
2020/12/30 05:55:09;;;;;;;1.60;1.50;;;5.60;99.90;;;;;;10484411;28;20564;-84
2020/12/30 06:00:13;;;;;;;1.43;1.33;;;5.60;99.90;;;;;;10523704;28;20761;-82
2020/12/30 06:05:19;;;;;;;1.70;1.60;;;5.70;99.90;;;;;;10486688;28;20195;-83
2020/12/30 06:10:22;;;;;;;2.70;1.60;;;5.70;99.90;;;;;;10514828;28;20192;-81
2020/12/30 06:15:26;;;;;;;2.13;1.40;;;5.80;99.90;;;;;;10524819;28;20200;-83
2020/12/30 06:20:32;;;;;;;2.43;2.20;;;5.80;99.90;;;;;;10509790;28;20318;-83
2020/12/30 06:25:35;;;;;;;2.47;1.97;;;5.80;99.90;;;;;;10505827;28;20278;-83
2020/12/30 06:30:38;;;;;;;2.30;2.20;;;5.70;99.90;;;;;;10523987;28;20688;-84
2020/12/30 06:35:41;;;;;;;1.97;1.83;;;5.70;99.90;;;;;;10506372;28;20275;-84
2020/12/30 06:40:52;;;;;;;2.10;1.87;;;5.60;99.90;;;;;;10510720;28;20282;-82
2020/12/30 06:45:54;;;;;;;2.23;1.90;;;5.50;99.90;;;;;;10505166;28;20206;-82
2020/12/30 06:51:15;;;;;;;2.57;2.37;;;5.40;99.90;;;;;;10501056;28;20307;-82
2020/12/30 06:56:34;;;;;;;2.73;2.20;;;5.30;99.90;;;;;;10487916;28;20198;-83
2020/12/30 07:01:54;;;;;;;2.30;2.20;;;5.30;99.90;;;;;;10502761;28;20234;-82
2020/12/30 07:06:56;;;;;;;2.87;2.53;;;5.20;99.90;;;;;;10502628;28;20271;-83
2020/12/30 07:11:59;;;;;;;2.20;2.00;;;5.20;99.90;;;;;;10501770;28;20240;-83
2020/12/30 07:17:03;;;;;;;2.03;1.90;;;5.20;99.90;;;;;;10505831;28;20220;-83
2020/12/30 07:22:05;;;;;;;2.13;1.90;;;5.30;99.90;;;;;;10521742;28;20295;-83
2020/12/30 07:27:09;;;;;;;3.10;2.43;;;5.30;99.90;;;;;;10504982;28;20223;-83
2020/12/30 07:32:13;;;;;;;2.20;2.00;;;5.30;99.90;;;;;;10505292;28;20231;-84
2020/12/30 07:37:16;;;;;;;2.03;1.83;;;5.30;99.90;;;;;;10486363;28;20208;-82
2020/12/30 07:42:19;;;;;;;2.00;1.90;;;5.30;99.90;;;;;;10503910;28;20224;-83
2020/12/30 07:47:23;;;;;;;2.10;1.90;;;5.30;99.90;;;;;;10510592;28;20189;-83
2020/12/30 07:52:25;;;;;;;2.90;2.70;;;5.30;99.90;;;;;;10493519;28;20308;-82
2020/12/30 07:57:27;;;;;;;2.93;2.50;;;5.40;99.90;;;;;;10499044;28;20196;-83
2020/12/30 08:02:30;;;;;;;1.83;1.73;;;5.40;99.90;;;;;;10484382;28;20208;-84
2020/12/30 08:07:32;;;;;;;2.20;2.10;;;5.40;99.90;;;;;;10503326;28;20196;-82
2020/12/30 08:12:33;;;;;;;2.27;2.07;;;5.50;99.90;;;;;;10517326;28;20213;-81
2020/12/30 08:17:37;;;;;;;1.80;1.70;;;5.60;99.90;;;;;;10518144;28;20223;-82
2020/12/30 08:22:39;;;;;;;1.80;1.70;;;5.70;99.90;;;;;;10498191;28;20219;-81
2020/12/30 08:27:42;;;;;;;2.03;1.80;;;5.80;99.90;;;;;;10502537;28;20675;-83
2020/12/30 08:32:52;;;;;;;1.70;1.60;;;5.80;99.90;;;;;;10484560;28;20231;-83
2020/12/30 08:38:07;;;;;;;2.07;1.83;;;5.90;99.70;;;;;;10484718;28;20299;-84
2020/12/30 08:43:33;;;;;;;1.77;1.67;;;5.90;99.40;;;;;;10501437;28;20216;-83
2020/12/30 08:48:47;;;;;;;2.17;1.50;;;6.00;99.40;;;;;;10504388;28;20196;-83
2020/12/30 08:53:49;;;;;;;2.13;2.00;;;6.00;99.30;;;;;;10504578;28;20311;-83
2020/12/30 08:58:55;;;;;;;1.53;1.43;;;6.10;99.60;;;;;;10486415;28;20281;-83
2020/12/30 09:04:10;;;;;;;2.00;1.60;;;6.20;98.90;;;;;;10498360;28;20250;-82
2020/12/30 09:09:13;;;;;;;1.87;1.77;;;6.20;99.30;;;;;;10490918;28;20203;-84
2020/12/30 09:14:16;;;;;;;2.20;2.00;;;6.30;99.00;;;;;;10515534;28;20247;-83
2020/12/30 09:19:19;;;;;;;2.23;2.07;;;6.40;98.70;;;;;;10499356;28;20269;-83
2020/12/30 09:24:23;;;;;;;1.43;1.33;;;6.40;98.60;;;;;;10513064;28;20290;-82
2020/12/30 09:29:25;;;;;;;2.17;1.70;;;6.40;98.30;;;;;;10494309;28;20291;-82
2020/12/30 09:34:30;;;;;;;1.73;1.63;;;6.40;98.50;;;;;;10494818;28;20306;-83
2020/12/30 09:39:32;;;;;;;1.60;1.50;;;6.50;99.00;;;;;;10497781;28;20215;-83
2020/12/30 09:44:34;;;;;;;1.90;1.67;;;6.50;99.00;;;;;;10481698;28;20209;-83
2020/12/30 09:49:36;;;;;;;3.13;2.03;;;6.60;98.00;;;;;;10500040;28;20192;-82
2020/12/30 09:54:38;;;;;;;2.13;2.00;;;6.60;98.30;;;;;;10503668;28;20223;-82
2020/12/30 09:59:40;;;;;;;1.50;1.40;;;6.60;97.90;;;;;;10494153;28;20302;-82
2020/12/30 10:04:42;;;;;;;2.10;1.83;;;6.70;98.30;;;;;;10494171;28;20718;-82
2020/12/30 10:09:44;;;;;;;1.87;1.77;;;6.70;98.00;;;;;;10497407;28;20200;-83
2020/12/30 10:14:45;;;;;;;2.03;1.60;;;6.70;97.90;;;;;;10479758;28;20281;-84
2020/12/30 10:19:48;;;;;;;2.87;2.00;;;6.70;97.80;;;;;;10489153;28;20216;-81
2020/12/30 10:24:49;;;;;;;3.83;1.87;;;6.70;97.80;;;;;;10478846;28;20235;-84
2020/12/30 10:29:51;;;;;;;2.00;1.90;;;6.80;98.00;;;;;;10467884;28;20612;-82
2020/12/30 10:34:53;;;;;;;2.30;2.00;;;6.90;98.00;;;;;;10500398;28;20250;-83
2020/12/30 10:39:55;;;;;;;1.90;1.80;;;7.00;97.70;;;;;;10501042;28;20314;-81
2020/12/30 10:44:57;;;;;;;3.83;2.37;;;7.10;98.20;;;;;;10502925;28;20216;-83
2020/12/30 10:49:59;;;;;;;2.10;2.00;;;7.10;97.80;;;;;;10487929;28;20197;-83
2020/12/30 10:55:01;;;;;;;2.70;1.87;;;7.30;97.70;;;;;;10505562;28;20225;-84
2020/12/30 11:00:04;;;;;;;1.97;1.77;;;7.40;97.60;;;;;;10501781;28;20220;-84
2020/12/30 11:05:07;;;;;;;2.33;1.90;;;7.50;97.80;;;;;;10502936;28;20241;-82
2020/12/30 11:10:09;;;;;;;1.87;1.67;;;7.60;97.30;;;;;;10506768;28;20188;-83
2020/12/30 11:15:10;;;;;;;1.80;1.50;;;7.70;97.20;;;;;;10485855;28;20216;-84
2020/12/30 11:20:13;;;;;;;1.67;1.47;;;7.80;96.80;;;;;;10513129;28;20288;-83
2020/12/30 11:25:14;;;;;;;1.50;1.40;;;7.80;96.40;;;;;;10513498;28;20195;-83
2020/12/30 11:30:16;;;;;;;1.83;1.73;;;7.80;96.20;;;;;;10533644;28;20197;-83
2020/12/30 11:35:20;;;;;;;1.83;1.70;;;7.80;96.20;;;;;;10499347;28;20184;-82
2020/12/30 11:40:22;;;;;;;2.00;1.87;;;7.80;96.20;;;;;;10497910;28;20219;-84
2020/12/30 11:45:24;;;;;;;1.90;1.80;;;7.80;96.60;;;;;;10488615;28;20215;-84
2020/12/30 11:50:26;;;;;;;2.27;1.77;;;7.90;96.30;;;;;;10491999;28;20563;-83
2020/12/30 11:55:28;;;;;;;1.70;1.60;;;8.00;96.50;;;;;;10508058;28;20193;-83
2020/12/30 12:00:32;;;;;;;2.00;1.53;;;8.00;97.10;;;;;;10490964;28;20327;-82
2020/12/30 12:05:35;;;;;;;2.17;1.30;;;8.00;96.20;;;;;;10488226;28;20253;-82
2020/12/30 12:10:36;;;;;;;1.53;1.47;;;8.00;96.50;;;;;;10520041;28;20204;-83
2020/12/30 12:15:38;;;;;;;1.63;1.53;;;8.00;96.20;;;;;;10497725;28;20216;-82
2020/12/30 12:20:41;;;;;;;1.50;1.40;;;8.00;96.30;;;;;;10516669;28;20226;-83
2020/12/30 12:25:43;;;;;;;1.80;1.70;;;8.00;96.80;;;;;;10512068;28;20211;-83
2020/12/30 12:30:44;;;;;;;1.77;1.67;;;8.00;96.70;;;;;;10530563;28;20303;-82
2020/12/30 12:35:47;;;;;;;1.80;1.70;;;8.00;97.10;;;;;;10513774;28;20231;-82
2020/12/30 12:40:48;;;;;;;6.63;4.30;;;8.00;96.60;;;;;;10514792;28;20234;-83
2020/12/30 12:45:50;;;;;;;2.00;1.90;;;8.00;96.80;;;;;;10529731;28;20222;-81
2020/12/30 12:50:53;;;;;;;1.93;1.70;;;8.00;96.60;;;;;;10495808;28;20215;-84
2020/12/30 12:55:54;;;;;;;3.20;2.53;;;8.00;97.00;;;;;;10490101;28;21012;-83
2020/12/30 13:00:56;;;;;;;4.03;2.20;;;8.00;97.30;;;;;;10470893;28;20228;-82
2020/12/30 13:05:58;;;;;;;3.27;2.43;;;8.00;96.70;;;;;;10501872;28;20238;-82
2020/12/30 13:11:03;;;;;;;2.33;2.10;;;8.00;97.00;;;;;;10509450;28;20216;-81
2020/12/30 13:16:06;;;;;;;2.90;2.10;;;7.90;96.50;;;;;;10489647;28;20196;-83
2020/12/30 13:21:12;;;;;;;2.40;2.20;;;7.90;97.00;;;;;;10497981;28;20247;-82
2020/12/30 13:26:14;;;;;;;2.07;1.97;;;7.80;97.20;;;;;;10507884;28;20260;-82
2020/12/30 13:31:15;;;;;;;2.37;1.97;;;7.90;97.30;;;;;;10506386;28;20223;-81
2020/12/30 13:36:25;;;;;;;3.90;2.73;;;7.90;97.80;;;;;;10481451;28;20228;-82
2020/12/30 13:41:28;;;;;;;2.70;2.50;;;7.80;97.20;;;;;;10505614;28;20220;-83
2020/12/30 13:46:30;;;;;;;2.20;2.10;;;7.90;97.20;;;;;;10490912;28;20196;-83
2020/12/30 13:51:32;;;;;;;2.83;2.63;;;7.90;97.50;;;;;;10489321;28;20369;-83
2020/12/30 13:56:34;;;;;;;2.83;2.60;;;7.90;98.10;;;;;;10506782;28;20200;-83
2020/12/30 14:01:36;;;;;;;2.80;2.60;;;8.00;98.40;;;;;;10508132;28;20216;-83
2020/12/30 14:06:38;;;;;;;2.73;2.53;;;7.90;97.60;;;;;;10512947;28;20260;-83
2020/12/30 14:11:40;;;;;;;2.40;2.20;;;7.90;97.60;;;;;;10508932;28;20722;-82
2020/12/30 14:16:43;;;;;;;2.50;2.30;;;7.80;97.50;;;;;;10490304;28;20703;-83
2020/12/30 14:21:48;;;;;;;2.30;2.10;;;7.70;97.90;;;;;;10490800;28;20228;-83
2020/12/30 14:26:50;;;;;;;4.57;3.80;;;7.70;97.50;;;;;;10505141;28;20193;-83
2020/12/30 14:31:52;;;;;;;2.50;2.30;;;7.70;98.00;;;;;;10511379;28;20217;-83
2020/12/30 14:36:58;;;;;;;2.20;2.00;;;7.70;97.60;;;;;;10512967;28;20628;-83
2020/12/30 14:41:59;;;;;;;3.00;2.43;;;7.60;97.90;;;;;;10530656;28;20228;-82
2020/12/30 14:47:01;;;;;;;2.47;2.37;;;7.60;98.50;;;;;;10495290;28;20268;-83
2020/12/30 14:52:04;;;;;;;2.27;2.17;;;7.60;99.30;;;;;;10513771;28;20208;-82
2020/12/30 14:57:05;;;;;;;1.80;1.70;;;7.50;99.70;;;;;;10513558;28;20216;-82
2020/12/30 15:02:07;;;;;;;1.87;1.77;;;7.40;99.90;;;;;;10497601;28;20278;-82
2020/12/30 15:07:10;;;;;;;2.40;2.20;;;7.20;99.90;;;;;;10498231;28;20287;-83
2020/12/30 15:12:11;;;;;;;2.90;2.50;;;7.00;99.90;;;;;;10520452;28;20239;-84
2020/12/30 15:17:13;;;;;;;4.60;3.90;;;6.90;99.90;;;;;;10529012;28;20199;-83
2020/12/30 15:22:15;;;;;;;3.73;3.43;;;6.80;99.90;;;;;;10514601;28;20302;-83
2020/12/30 15:27:17;;;;;;;3.33;3.07;;;6.60;99.90;;;;;;10512990;28;20224;-82
2020/12/30 15:32:19;;;;;;;3.03;2.73;;;6.50;99.90;;;;;;10514110;28;20219;-82
2020/12/30 15:37:21;;;;;;;2.43;2.33;;;6.40;99.90;;;;;;10514224;28;20211;-81
2020/12/30 15:42:23;;;;;;;3.10;2.80;;;6.30;99.90;;;;;;10512462;28;20220;-81
2020/12/30 15:47:24;;;;;;;2.77;2.57;;;6.30;99.90;;;;;;10496017;28;20278;-83
2020/12/30 15:52:27;;;;;;;2.67;2.47;;;6.20;99.90;;;;;;10512004;28;20204;-83
2020/12/30 15:57:28;;;;;;;2.23;2.13;;;6.20;99.90;;;;;;10495162;28;20228;-83
2020/12/30 16:02:30;;;;;;;2.70;2.60;;;6.10;99.90;;;;;;10494474;28;20231;-82
2020/12/30 16:07:32;;;;;;;2.40;2.20;;;6.10;99.90;;;;;;10491395;28;20261;-82
2020/12/30 16:12:34;;;;;;;2.60;2.40;;;6.00;99.90;;;;;;10527106;28;20708;-82
2020/12/30 16:17:36;;;;;;;3.50;3.30;;;5.90;99.90;;;;;;10497852;28;20200;-82
2020/12/30 16:22:38;;;;;;;3.53;3.23;;;5.80;99.90;;;;;;10508710;28;20789;-83
2020/12/30 16:27:40;;;;;;;3.37;3.17;;;5.70;99.90;;;;;;10507440;28;20242;-81
2020/12/30 16:32:42;;;;;;;4.77;4.37;;;5.60;99.90;;;;;;10509279;28;20220;-80
2020/12/30 16:37:44;;;;;;;3.30;3.10;;;5.50;99.90;;;;;;10509969;28;20197;-80
2020/12/30 16:42:46;;;;;;;2.80;2.60;;;5.40;99.90;;;;;;10506971;28;20744;-84
2020/12/30 16:47:47;;;;;;;3.30;3.00;;;5.30;99.90;;;;;;10487364;28;20229;-82
2020/12/30 16:52:50;;;;;;;3.70;3.40;;;5.30;99.90;;;;;;10506839;28;20297;-84
2020/12/30 16:57:52;;;;;;;3.47;3.17;;;5.40;99.90;;;;;;10508300;28;20590;-83
2020/12/30 17:02:53;;;;;;;4.23;3.77;;;5.40;99.90;;;;;;10503981;28;20234;-82
2020/12/30 17:07:57;;;;;;;3.40;3.10;;;5.40;99.90;;;;;;10488446;28;20204;-82
2020/12/30 17:12:59;;;;;;;5.63;3.70;;;5.40;99.90;;;;;;10507064;28;20220;-82
2020/12/30 17:18:02;;;;;;;4.20;3.90;;;5.50;99.90;;;;;;10495287;28;20197;-82
2020/12/30 17:23:07;;;;;;;4.90;4.40;;;5.60;99.90;;;;;;10487993;28;20220;-84
2020/12/30 17:28:09;;;;;;;4.63;4.20;;;5.70;99.90;;;;;;10505933;28;20645;-83
2020/12/30 17:33:10;;;;;;;4.77;4.17;;;5.80;99.90;;;;;;10487675;28;20601;-84
2020/12/30 17:38:13;;;;;;;5.23;4.83;;;5.80;99.90;;;;;;10507796;28;20209;-84
2020/12/30 17:43:15;;;;;;;5.57;5.07;;;5.80;99.90;;;;;;10495540;28;20228;-83
2020/12/30 17:48:16;;;;;;;4.60;4.23;;;5.70;99.90;;;;;;10491125;28;20230;-84
2020/12/30 17:53:19;;;;;;;6.60;5.20;;;5.60;99.90;;;;;;10507038;28;20214;-82
2020/12/30 17:58:21;;;;;;;11.60;9.10;;;5.60;99.90;;;;;;10504326;28;20208;-83
2020/12/30 18:03:23;;;;;;;9.50;8.00;;;5.50;99.90;;;;;;10507113;28;20589;-83
2020/12/30 18:08:26;;;;;;;7.33;6.60;;;5.60;99.90;;;;;;10515103;28;20204;-85
2020/12/30 18:13:27;;;;;;;6.40;5.80;;;5.60;99.90;;;;;;10517721;28;20208;-83
2020/12/30 18:18:30;;;;;;;4.77;4.37;;;5.70;99.90;;;;;;10515545;28;20754;-83
2020/12/30 18:23:32;;;;;;;4.00;3.70;;;5.70;99.90;;;;;;10496574;28;20247;-84
2020/12/30 18:28:34;;;;;;;4.70;4.30;;;5.80;99.90;;;;;;10491906;28;20201;-85
2020/12/30 18:33:36;;;;;;;4.93;4.20;;;5.90;99.90;;;;;;10505555;28;20232;-86
2020/12/30 18:38:39;;;;;;;5.37;4.90;;;6.00;99.90;;;;;;10490733;28;20277;-84
2020/12/30 18:43:50;;;;;;;4.77;4.37;;;6.10;99.90;;;;;;10506881;28;20216;-85
2020/12/30 18:48:52;;;;;;;4.83;4.10;;;6.10;99.90;;;;;;10491475;28;20250;-84
2020/12/30 18:53:55;;;;;;;3.63;3.33;;;6.20;99.90;;;;;;10491112;28;20212;-84
2020/12/30 18:58:57;;;;;;;7.67;6.97;;;6.20;99.90;;;;;;10507419;28;20255;-84
2020/12/30 19:03:59;;;;;;;3.77;3.47;;;6.30;99.90;;;;;;10505622;28;20537;-85
2020/12/30 19:14:23;;;;;;;3.10;2.90;;;6.30;99.90;;;;;;10482120;28;20216;-85
2020/12/30 19:19:24;;;;;;;3.07;2.80;;;6.40;99.90;;;;;;10487413;28;20213;-85
2020/12/30 19:24:27;;;;;;;3.17;2.63;;;6.40;99.90;;;;;;10490913;28;20248;-85
2020/12/30 19:29:29;;;;;;;3.73;3.43;;;6.40;99.90;;;;;;10489700;28;20587;-84
2020/12/30 19:34:30;;;;;;;2.60;2.50;;;6.40;99.90;;;;;;10519585;28;20687;-85
2020/12/30 19:39:33;;;;;;;4.80;4.40;;;6.40;99.90;;;;;;10489877;28;20221;-84
2020/12/30 19:44:39;;;;;;;5.70;4.63;;;6.40;99.90;;;;;;10521950;28;20220;-85
2020/12/30 19:49:45;;;;;;;6.47;5.90;;;6.40;99.90;;;;;;10502603;28;20192;-84
2020/12/30 19:54:49;;;;;;;5.07;4.73;;;6.30;99.90;;;;;;10502830;28;20224;-84
2020/12/30 19:59:51;;;;;;;3.93;3.63;;;6.30;99.90;;;;;;10503028;28;20224;-84
2020/12/30 20:04:53;;;;;;;4.00;3.70;;;6.20;99.90;;;;;;10490432;28;20316;-84
2020/12/30 20:09:56;;;;;;;3.03;2.83;;;6.20;99.90;;;;;;10494417;28;20250;-84
2020/12/30 20:15:03;;;;;;;3.97;3.67;;;6.10;99.90;;;;;;10504639;28;20280;-84
2020/12/30 20:20:13;;;;;;;3.20;3.00;;;6.10;99.90;;;;;;10492599;28;20230;-84
2020/12/30 20:25:17;;;;;;;3.60;3.30;;;6.20;99.90;;;;;;10524282;28;20306;-84
2020/12/30 20:30:19;;;;;;;3.50;3.20;;;6.20;99.90;;;;;;10499889;28;20197;-84
2020/12/30 20:35:21;;;;;;;3.30;3.00;;;6.20;99.90;;;;;;10502573;28;20232;-84
2020/12/30 20:40:28;;;;;;;3.30;3.03;;;6.20;99.90;;;;;;10476131;28;20321;-84
2020/12/30 20:45:29;;;;;;;3.70;3.40;;;6.20;99.90;;;;;;10493775;28;20200;-83
2020/12/30 20:50:32;;;;;;;3.53;3.20;;;6.20;99.90;;;;;;10481396;28;20224;-82
2020/12/30 20:55:40;;;;;;;3.97;3.63;;;6.20;99.90;;;;;;10476979;28;20258;-83
2020/12/30 21:00:42;;;;;;;3.77;3.47;;;6.30;99.90;;;;;;10494922;28;20283;-84
2020/12/30 21:05:43;;;;;;;3.70;3.40;;;6.30;99.90;;;;;;10474621;28;20203;-84
2020/12/30 21:10:46;;;;;;;3.47;3.17;;;6.40;99.90;;;;;;10471663;28;20337;-85
2020/12/30 21:15:48;;;;;;;3.60;3.40;;;6.40;99.90;;;;;;10475811;28;20250;-84
2020/12/30 21:20:51;;;;;;;4.10;3.70;;;6.50;99.90;;;;;;10484883;28;20792;-82
2020/12/30 21:25:53;;;;;;;3.30;3.10;;;6.50;99.90;;;;;;10480502;28;20200;-83
2020/12/30 21:30:55;;;;;;;3.13;2.93;;;6.40;99.90;;;;;;10498711;28;20763;-81
2020/12/30 21:35:57;;;;;;;3.53;3.27;;;6.30;99.90;;;;;;10499520;28;20196;-81
2020/12/30 21:41:01;;;;;;;3.80;3.50;;;6.30;99.90;;;;;;10497258;28;20599;-81
2020/12/30 21:46:08;;;;;;;5.80;4.80;;;6.30;99.90;;;;;;10498467;28;20204;-81
2020/12/30 21:51:12;;;;;;;3.93;3.63;;;6.30;99.90;;;;;;10503875;28;20612;-82
2020/12/30 21:56:16;;;;;;;3.50;3.20;;;6.20;99.90;;;;;;10493704;28;20197;-84
2020/12/30 22:01:17;;;;;;;4.67;3.80;;;6.10;99.90;;;;;;10509377;28;20358;-81
2020/12/30 22:06:19;;;;;;;4.10;3.80;;;6.00;99.90;;;;;;10491366;28;20215;-82
2020/12/30 22:11:22;;;;;;;5.27;3.83;;;5.80;99.90;;;;;;10493123;28;20631;-80
2020/12/30 22:16:24;;;;;;;4.33;4.03;;;5.60;99.90;;;;;;10492642;28;20203;-81
2020/12/30 22:21:26;;;;;;;3.70;3.47;;;5.50;99.90;;;;;;10492088;28;20247;-83
2020/12/30 22:26:28;;;;;;;4.40;4.03;;;5.50;99.90;;;;;;10499245;28;20201;-84
2020/12/30 22:31:31;;;;;;;3.13;2.93;;;5.50;99.90;;;;;;10497780;28;20621;-81
2020/12/30 22:36:32;;;;;;;3.67;3.47;;;5.50;99.90;;;;;;10494812;28;20192;-81
2020/12/30 22:41:35;;;;;;;3.70;3.40;;;5.40;99.90;;;;;;10471999;28;20228;-80
2020/12/30 22:46:36;;;;;;;3.50;3.20;;;5.40;99.90;;;;;;10476657;28;20200;-82
2020/12/30 22:51:38;;;;;;;3.57;3.27;;;5.40;99.90;;;;;;10496746;28;20255;-82
2020/12/30 22:56:41;;;;;;;4.23;3.93;;;5.40;99.90;;;;;;10516158;28;20235;-82
2020/12/30 23:01:42;;;;;;;4.00;3.70;;;5.40;99.90;;;;;;10497610;28;20303;-82
2020/12/30 23:06:44;;;;;;;3.30;3.10;;;5.40;99.90;;;;;;10499515;28;20663;-85
2020/12/30 23:11:46;;;;;;;3.60;3.30;;;5.40;99.90;;;;;;10500896;28;20217;-82
2020/12/30 23:16:48;;;;;;;3.70;3.40;;;5.40;99.90;;;;;;10516046;28;20212;-82
2020/12/30 23:21:50;;;;;;;4.40;4.00;;;5.40;99.90;;;;;;10498669;28;20718;-82
2020/12/30 23:26:52;;;;;;;3.47;3.27;;;5.40;99.90;;;;;;10498557;28;20240;-83
2020/12/30 23:31:54;;;;;;;4.20;3.77;;;5.40;99.90;;;;;;10515824;28;20252;-82
2020/12/30 23:36:55;;;;;;;3.90;3.60;;;5.40;99.90;;;;;;10482111;28;20249;-83
2020/12/30 23:41:58;;;;;;;3.53;3.23;;;5.30;99.90;;;;;;10518357;28;20220;-85
2020/12/30 23:46:59;;;;;;;3.40;3.20;;;5.20;99.90;;;;;;10515288;28;20291;-85
2020/12/30 23:52:01;;;;;;;3.50;3.30;;;5.10;99.90;;;;;;10496484;28;20307;-85
2020/12/30 23:57:04;;;;;;;3.97;3.57;;;5.10;99.90;;;;;;10480046;28;20245;-83
